Terminal Aerodrome Forecast
Issued by NWS Twin Cities, MN

Current Version | Previous Version | Text Only | Print | Product List | Glossary On
Versions: 1 2 3 4 5 6 7 8 9 10 11 12 13 14 15 16 17 18 19 20 21 22 23 24 25
000
FTUS43 KMPX 041722
TAFEAU
TAF
KEAU 041722Z 0418/0518 13007KT P6SM SCT040 BKN120
     FM042200 14012KT P6SM BKN120
     FM050300 12008KT P6SM VCSH SCT040 OVC120
     FM050600 13004KT 4SM BR SCT004 SCT120
     FM051500 18009KT P6SM SCT035 BKN250=

USA.gov is the U.S. government's official web portal to all federal, state and local government web resources and services.